createdAt,value
2022-10-22T00:00:51.744Z,46.53
2022-10-22T00:03:19.264Z,46.97
2022-10-22T00:05:47.840Z,46.10
2022-10-22T00:08:17.488Z,47.10
2022-10-22T00:10:47.277Z,45.78
2022-10-22T00:13:19.966Z,44.17
2022-10-22T00:15:50.925Z,44.88
2022-10-22T00:18:20.563Z,41.95
2022-10-22T00:20:50.547Z,43.53
2022-10-22T00:23:20.796Z,43.85
2022-10-22T00:25:50.790Z,42.30
2022-10-22T00:28:21.781Z,42.13
2022-10-22T00:30:55.117Z,39.92
2022-10-22T00:33:22.694Z,42.55
2022-10-22T00:35:55.681Z,40.92
2022-10-22T00:38:23.143Z,38.85
2022-10-22T00:40:53.165Z,38.85
2022-10-22T00:43:23.482Z,42.08
2022-10-22T00:45:56.229Z,38.72
2022-10-22T00:48:27.352Z,38.90
2022-10-22T00:50:59.796Z,39.67
2022-10-22T00:53:36.855Z,38.17
2022-10-22T00:56:09.341Z,37.83
2022-10-22T00:58:44.006Z,37.05
2022-10-22T01:01:18.320Z,36.20
2022-10-22T01:03:48.936Z,35.38
2022-10-22T01:06:25.037Z,36.42
2022-10-22T01:09:19.247Z,35.75
2022-10-22T01:12:15.894Z,32.95
2022-10-22T01:15:11.284Z,33.95
2022-10-22T01:17:47.559Z,34.45
2022-10-22T01:20:30.198Z,36.00
2022-10-22T01:23:24.939Z,32.58
2022-10-22T01:26:11.018Z,32.55
2022-10-22T01:28:56.633Z,32.72
2022-10-22T01:31:37.731Z,32.47
2022-10-22T01:34:08.870Z,32.28
2022-10-22T01:36:38.877Z,32.88
2022-10-22T01:39:08.775Z,32.22
2022-10-22T01:41:38.986Z,30.90
2022-10-22T01:44:27.012Z,31.65
2022-10-22T01:47:16.093Z,29.73
2022-10-22T01:49:55.825Z,29.75
2022-10-22T01:52:52.453Z,28.70
2022-10-22T01:55:50.449Z,30.13
2022-10-22T01:58:38.962Z,30.88
2022-10-22T02:01:23.706Z,29.45
2022-10-22T02:04:16.894Z,29.08
2022-10-22T02:06:50.248Z,30.03
2022-10-22T02:11:49.287Z,28.30
2022-10-22T02:14:21.196Z,27.20
2022-10-22T02:16:50.949Z,27.77
2022-10-22T02:19:36.915Z,27.02
2022-10-22T02:22:13.650Z,26.95
2022-10-22T02:24:43.218Z,27.10
2022-10-22T02:27:43.763Z,29.27
2022-10-22T02:30:18.376Z,27.25
2022-10-22T02:32:52.951Z,25.75
2022-10-22T02:35:28.794Z,26.05
2022-10-22T02:37:58.642Z,25.38
2022-10-22T02:40:33.810Z,26.38
2022-10-22T02:43:13.264Z,25.40
2022-10-22T02:45:40.754Z,25.52
2022-10-22T02:48:13.877Z,24.65
2022-10-22T02:50:44.441Z,26.25
2022-10-22T02:53:12.019Z,23.75
2022-10-22T02:55:42.002Z,26.80
2022-10-22T02:58:09.780Z,25.67
2022-10-22T03:00:37.206Z,24.50
2022-10-22T03:03:04.744Z,23.05
2022-10-22T03:05:32.287Z,24.63
2022-10-22T03:08:02.188Z,23.48
2022-10-22T03:10:32.162Z,23.63
2022-10-22T03:12:59.993Z,22.17
2022-10-22T03:18:03.359Z,22.52
2022-10-22T03:20:36.338Z,23.83
2022-10-22T03:23:04.217Z,24.92
2022-10-22T03:25:34.615Z,22.88
2022-10-22T03:28:13.425Z,21.98
2022-10-22T03:30:43.560Z,24.25
2022-10-22T03:33:16.423Z,21.60
2022-10-22T03:35:47.277Z,22.98
2022-10-22T03:38:20.555Z,21.17
2022-10-22T03:40:54.178Z,21.08
2022-10-22T03:43:22.397Z,21.15
2022-10-22T03:45:52.441Z,20.88
2022-10-22T03:48:20.110Z,20.35
2022-10-22T03:50:52.768Z,20.92
2022-10-22T03:53:22.369Z,21.07
2022-10-22T03:55:55.434Z,21.25
2022-10-22T03:58:30.606Z,19.40
2022-10-22T04:01:01.073Z,19.13
2022-10-22T04:03:34.476Z,19.83
2022-10-22T04:06:12.957Z,18.48
2022-10-22T04:08:44.523Z,19.05
2022-10-22T04:11:19.132Z,19.85
2022-10-22T04:13:50.444Z,18.75
2022-10-22T04:16:24.109Z,19.20
2022-10-22T04:18:54.237Z,19.48
2022-10-22T04:21:30.041Z,19.02
2022-10-22T04:24:00.465Z,18.30
2022-10-22T04:26:30.799Z,18.58
2022-10-22T04:29:01.863Z,18.10
2022-10-22T04:31:29.602Z,19.40
2022-10-22T04:34:01.842Z,18.65
2022-10-22T04:36:32.613Z,18.67
2022-10-22T04:39:04.873Z,17.13
2022-10-22T04:41:35.257Z,19.17
2022-10-22T04:44:03.963Z,17.50
2022-10-22T04:46:34.933Z,17.90
2022-10-22T04:49:05.475Z,16.42
2022-10-22T04:51:33.393Z,16.70
2022-10-22T04:54:06.034Z,16.08
2022-10-22T04:56:34.131Z,17.90
2022-10-22T04:59:04.408Z,16.73
2022-10-22T05:01:41.713Z,17.15
2022-10-22T05:04:19.769Z,16.70
2022-10-22T05:06:49.026Z,17.52
2022-10-22T05:09:23.222Z,15.48
2022-10-22T05:11:55.358Z,15.98
2022-10-22T05:14:26.570Z,16.33
2022-10-22T05:16:54.243Z,15.70
2022-10-22T05:19:24.853Z,15.95
2022-10-22T05:21:54.474Z,14.95
2022-10-22T05:24:25.491Z,16.05
2022-10-22T05:26:54.273Z,16.60
2022-10-22T05:29:23.297Z,16.42
2022-10-22T05:31:54.300Z,15.70
2022-10-22T05:34:21.815Z,15.38
2022-10-22T05:36:49.184Z,15.20
2022-10-22T05:39:22.305Z,16.17
2022-10-22T05:41:55.621Z,13.90
2022-10-22T05:44:23.189Z,14.63
2022-10-22T05:46:53.733Z,14.38
2022-10-22T05:49:27.082Z,15.18
2022-10-22T05:51:56.679Z,15.73
2022-10-22T05:54:24.520Z,15.82
2022-10-22T05:56:52.228Z,15.02
2022-10-22T05:59:19.612Z,14.98
2022-10-22T06:01:51.784Z,15.38
2022-10-22T06:04:21.673Z,15.00
2022-10-22T06:06:51.583Z,15.07
2022-10-22T06:09:29.387Z,14.85
2022-10-22T06:11:58.273Z,14.57
2022-10-22T06:14:32.725Z,12.77
2022-10-22T06:17:05.502Z,13.98
2022-10-22T06:19:36.710Z,13.57
2022-10-22T06:22:07.243Z,14.23
2022-10-22T06:24:35.344Z,13.90
2022-10-22T06:27:02.966Z,14.77
2022-10-22T06:29:34.290Z,14.00
2022-10-22T06:32:05.286Z,13.27
2022-10-22T06:34:33.196Z,12.32
2022-10-22T06:37:03.992Z,13.35
2022-10-22T06:39:37.607Z,14.20
2022-10-22T06:42:08.291Z,11.50
2022-10-22T06:44:38.743Z,11.55
2022-10-22T06:47:15.607Z,11.73
2022-10-22T06:49:46.237Z,11.82
2022-10-22T06:52:19.048Z,12.40
2022-10-22T06:54:47.573Z,12.83
2022-10-22T06:57:25.286Z,13.30
2022-10-22T06:59:53.388Z,11.90
2022-10-22T07:02:30.274Z,12.88
2022-10-22T07:05:00.521Z,12.00
2022-10-22T07:07:31.032Z,11.70
2022-10-22T07:09:58.959Z,12.50
2022-10-22T07:12:34.232Z,13.20
2022-10-22T07:15:07.604Z,11.68
2022-10-22T07:17:43.390Z,10.60
2022-10-22T07:20:16.732Z,12.40
2022-10-22T07:22:53.066Z,12.20
2022-10-22T07:25:27.650Z,11.88
2022-10-22T07:27:55.467Z,10.68
2022-10-22T07:30:28.732Z,10.93
2022-10-22T07:32:56.569Z,12.77
2022-10-22T07:35:24.910Z,10.30
2022-10-22T07:37:56.746Z,12.00
2022-10-22T07:40:27.181Z,11.63
2022-10-22T07:42:57.471Z,12.45
2022-10-22T07:45:34.703Z,11.43
2022-10-22T07:48:06.442Z,10.27
2022-10-22T07:50:37.534Z,9.55
2022-10-22T07:53:05.683Z,11.82
2022-10-22T07:55:40.791Z,12.40
2022-10-22T07:58:08.756Z,17.80
2022-10-22T08:00:42.839Z,13.05
2022-10-22T08:03:12.445Z,11.93
2022-10-22T08:05:47.543Z,12.88
2022-10-22T08:08:17.304Z,11.68
2022-10-22T08:10:46.904Z,11.30
2022-10-22T08:13:17.790Z,11.35
2022-10-22T08:15:53.618Z,10.65
2022-10-22T08:18:27.962Z,10.25
2022-10-22T08:21:02.045Z,10.43
2022-10-22T08:23:32.256Z,10.35
2022-10-22T08:26:00.604Z,10.20
2022-10-22T08:28:33.262Z,10.02
2022-10-22T08:31:09.297Z,10.13
2022-10-22T08:33:42.450Z,10.90
2022-10-22T08:36:15.809Z,10.52
2022-10-22T08:38:48.348Z,11.32
2022-10-22T08:41:25.610Z,10.40
2022-10-22T08:44:32.724Z,11.57
2022-10-22T08:47:38.517Z,10.60
2022-10-22T08:50:19.984Z,11.02
2022-10-22T08:52:55.332Z,10.30
2022-10-22T08:55:31.752Z,10.23
2022-10-22T08:58:18.046Z,10.85
2022-10-22T09:00:58.329Z,10.95
2022-10-22T09:03:49.167Z,10.88
2022-10-22T09:06:30.628Z,10.50
2022-10-22T09:09:02.777Z,12.20
2022-10-22T09:11:43.610Z,14.65
2022-10-22T09:14:24.213Z,10.60
2022-10-22T09:17:29.827Z,10.77
2022-10-22T09:20:27.171Z,12.23
2022-10-22T09:23:19.605Z,9.65
2022-10-22T09:25:52.593Z,11.73
2022-10-22T09:28:25.859Z,11.63
2022-10-22T09:33:34.806Z,13.35
2022-10-22T09:36:10.943Z,11.55
2022-10-22T09:39:02.553Z,10.45
2022-10-22T09:41:35.577Z,13.35
2022-10-22T09:44:10.640Z,11.40
2022-10-22T09:46:48.852Z,11.15
2022-10-22T09:49:23.141Z,11.63
2022-10-22T09:51:59.591Z,14.00
2022-10-22T09:54:33.973Z,11.45
2022-10-22T09:57:17.392Z,11.82
2022-10-22T09:59:54.227Z,11.07
2022-10-22T10:02:38.246Z,11.93
2022-10-22T10:05:08.226Z,11.35
2022-10-22T10:07:41.904Z,10.32
2022-10-22T10:10:41.706Z,10.68
2022-10-22T10:13:36.963Z,11.10
2022-10-22T10:16:35.066Z,12.45
2022-10-22T10:19:15.251Z,12.25
2022-10-22T10:21:48.405Z,10.52
2022-10-22T10:24:42.815Z,9.85
2022-10-22T10:27:20.473Z,9.10
2022-10-22T10:29:57.418Z,10.18
2022-10-22T10:32:40.201Z,10.75
2022-10-22T10:35:35.999Z,10.70
2022-10-22T10:38:18.821Z,9.82
2022-10-22T10:41:13.375Z,10.70
2022-10-22T10:44:15.659Z,11.40
2022-10-22T10:46:55.983Z,9.63
2022-10-22T10:49:33.162Z,9.70
2022-10-22T10:52:23.668Z,9.52
2022-10-22T10:54:57.053Z,8.05
2022-10-22T10:57:33.632Z,9.70
2022-10-22T11:00:12.413Z,9.38
2022-10-22T11:02:42.685Z,8.80
2022-10-22T11:05:28.604Z,9.23
2022-10-22T11:08:10.972Z,11.15
2022-10-22T11:10:41.337Z,9.85
2022-10-22T11:13:19.771Z,9.75
2022-10-22T11:15:55.187Z,8.05
2022-10-22T11:18:40.803Z,10.25
2022-10-22T11:21:27.800Z,8.55
2022-10-22T11:24:13.123Z,9.32
2022-10-22T11:26:46.542Z,9.65
2022-10-22T11:29:24.017Z,9.38
2022-10-22T11:31:54.755Z,10.10
2022-10-22T11:34:33.570Z,8.82
2022-10-22T11:37:06.669Z,10.25
2022-10-22T11:39:51.026Z,10.40
2022-10-22T11:42:37.506Z,9.88
2022-10-22T11:45:29.490Z,9.20
2022-10-22T11:47:56.980Z,10.68
2022-10-22T11:50:47.417Z,10.43
2022-10-22T11:53:21.478Z,8.75
2022-10-22T11:56:03.285Z,9.15
2022-10-22T11:58:43.880Z,10.65
2022-10-22T12:01:11.466Z,9.10
2022-10-22T12:04:05.268Z,9.13
2022-10-22T12:07:02.892Z,10.05
2022-10-22T12:09:33.016Z,10.32
2022-10-22T12:12:21.371Z,8.77
2022-10-22T12:14:54.776Z,9.07
2022-10-22T12:20:17.228Z,9.75
2022-10-22T12:22:48.973Z,8.88
2022-10-22T12:25:22.956Z,9.88
2022-10-22T12:27:55.034Z,10.48
2022-10-22T12:30:28.208Z,9.55
2022-10-22T12:33:03.446Z,10.52
2022-10-22T12:35:34.353Z,8.63
2022-10-22T12:38:12.614Z,8.55
2022-10-22T12:40:46.027Z,8.07
2022-10-22T12:43:25.364Z,10.57
2022-10-22T12:45:57.796Z,9.45
2022-10-22T12:48:37.539Z,9.15
2022-10-22T12:51:09.885Z,9.25
2022-10-22T12:53:56.612Z,7.78
2022-10-22T12:56:30.354Z,8.90
2022-10-22T12:59:05.288Z,8.13
2022-10-22T13:01:37.925Z,9.15
2022-10-22T13:04:08.109Z,9.38
2022-10-22T13:06:36.599Z,8.98
2022-10-22T13:09:08.020Z,8.88
2022-10-22T13:11:43.086Z,9.07
2022-10-22T13:14:45.106Z,9.10
2022-10-22T13:17:40.316Z,8.43
2022-10-22T13:20:22.832Z,8.52
2022-10-22T13:23:20.039Z,9.27
2022-10-22T13:26:14.241Z,8.65
2022-10-22T13:28:42.869Z,8.30
2022-10-22T13:31:20.059Z,8.35
2022-10-22T13:34:12.950Z,8.48
2022-10-22T13:36:44.539Z,9.60
2022-10-22T13:39:30.265Z,8.15
2022-10-22T13:42:00.889Z,8.43
2022-10-22T13:44:28.506Z,9.07
2022-10-22T13:46:58.712Z,8.18
2022-10-22T13:49:31.439Z,8.88
2022-10-22T13:52:01.068Z,10.13
2022-10-22T13:54:34.341Z,8.20
2022-10-22T13:57:08.538Z,9.27
2022-10-22T13:59:38.688Z,8.13
2022-10-22T14:02:12.695Z,8.73
2022-10-22T14:04:45.474Z,8.13
2022-10-22T14:07:14.629Z,8.05
2022-10-22T14:09:42.942Z,7.63
2022-10-22T14:12:16.442Z,8.48
2022-10-22T14:14:44.343Z,9.05
2022-10-22T14:17:17.096Z,8.30
2022-10-22T14:19:47.169Z,8.50
2022-10-22T14:22:19.345Z,8.77
2022-10-22T14:24:50.182Z,8.77
2022-10-22T14:27:20.256Z,7.97
2022-10-22T14:29:55.992Z,7.88
2022-10-22T14:32:28.467Z,8.00
2022-10-22T14:34:59.986Z,8.98
2022-10-22T14:37:27.823Z,7.47
2022-10-22T14:40:02.755Z,7.47
2022-10-22T14:42:30.356Z,8.25
2022-10-22T14:45:00.533Z,8.55
2022-10-22T14:47:27.946Z,8.65
2022-10-22T14:49:56.450Z,8.43
2022-10-22T14:52:23.918Z,7.63
2022-10-22T14:54:51.403Z,7.60
2022-10-22T14:57:21.783Z,8.18
2022-10-22T14:59:55.042Z,7.95
2022-10-22T15:02:30.799Z,8.15
2022-10-22T15:05:01.893Z,8.20
2022-10-22T15:07:32.121Z,8.43
2022-10-22T15:10:05.897Z,9.07
2022-10-22T15:12:33.968Z,7.50
2022-10-22T15:15:06.813Z,8.00
2022-10-22T15:17:36.847Z,8.25
2022-10-22T15:20:05.808Z,7.93
2022-10-22T15:22:37.276Z,7.82
2022-10-22T15:25:10.201Z,8.25
2022-10-22T15:27:37.883Z,7.90
2022-10-22T15:30:07.090Z,9.75
2022-10-22T15:32:38.400Z,7.32
2022-10-22T15:35:08.698Z,7.40
2022-10-22T15:37:37.897Z,8.38
2022-10-22T15:40:08.174Z,8.45
2022-10-22T15:42:38.701Z,7.57
2022-10-22T15:45:09.652Z,7.45
2022-10-22T15:47:37.131Z,9.00
2022-10-22T15:50:07.362Z,7.35
2022-10-22T15:52:37.250Z,7.00
2022-10-22T15:55:10.921Z,7.13
2022-10-22T15:57:39.821Z,7.90
2022-10-22T16:00:08.265Z,6.70
2022-10-22T16:02:43.390Z,8.25
2022-10-22T16:05:14.466Z,7.35
2022-10-22T16:07:43.206Z,8.48
2022-10-22T16:10:14.269Z,6.97
2022-10-22T16:12:45.362Z,7.47
2022-10-22T16:15:15.982Z,7.47
2022-10-22T16:17:43.492Z,6.95
2022-10-22T16:22:52.662Z,7.55
2022-10-22T16:25:25.692Z,7.18
2022-10-22T16:27:57.236Z,7.97
2022-10-22T16:30:30.113Z,7.45
2022-10-22T16:32:57.601Z,7.45
2022-10-22T16:35:25.292Z,6.53
2022-10-22T16:37:53.263Z,8.13
2022-10-22T16:40:24.089Z,9.15
2022-10-22T16:42:56.934Z,7.28
2022-10-22T16:45:30.592Z,7.18
2022-10-22T16:48:01.580Z,6.97
2022-10-22T16:50:34.274Z,7.35
2022-10-22T16:53:02.715Z,7.00
2022-10-22T16:55:31.372Z,5.85
2022-10-22T16:57:58.850Z,6.82
2022-10-22T17:00:35.475Z,6.80
2022-10-22T17:03:03.588Z,7.68
2022-10-22T17:05:35.194Z,7.90
2022-10-22T17:08:02.608Z,7.72
2022-10-22T17:10:30.320Z,7.40
2022-10-22T17:13:00.419Z,6.40
2022-10-22T17:15:28.364Z,7.15
2022-10-22T17:17:56.491Z,6.88
2022-10-22T17:20:24.418Z,6.88
2022-10-22T17:22:55.503Z,6.03
2022-10-22T17:25:36.845Z,7.68
2022-10-22T17:28:10.634Z,7.40
2022-10-22T17:30:40.832Z,6.95
2022-10-22T17:33:11.649Z,6.88
2022-10-22T17:35:43.179Z,6.32
2022-10-22T17:38:13.015Z,6.47
2022-10-22T17:40:40.909Z,7.45
2022-10-22T17:43:08.350Z,7.55
2022-10-22T17:45:41.110Z,6.63
2022-10-22T17:48:11.946Z,7.27
2022-10-22T17:50:49.648Z,7.13
2022-10-22T17:53:22.381Z,6.43
2022-10-22T17:55:58.705Z,7.35
2022-10-22T17:58:29.810Z,6.72
2022-10-22T18:01:03.212Z,8.02
